sensor_id;sensor_type;location;lat;lon;timestamp;temperature;humidity
9564;DHT22;4820;50.870;4.702;2023-09-12T00:01:06;21.70;99.90
9564;DHT22;4820;50.870;4.702;2023-09-12T00:03:33;21.70;99.90
9564;DHT22;4820;50.870;4.702;2023-09-12T00:06:00;21.70;99.90
9564;DHT22;4820;50.870;4.702;2023-09-12T00:08:27;21.70;99.90
9564;DHT22;4820;50.870;4.702;2023-09-12T00:11:04;21.70;99.90
9564;DHT22;4820;50.870;4.702;2023-09-12T00:13:30;21.60;99.90
9564;DHT22;4820;50.870;4.702;2023-09-12T00:15:57;21.50;99.90
9564;DHT22;4820;50.870;4.702;2023-09-12T00:18:23;21.50;99.90
9564;DHT22;4820;50.870;4.702;2023-09-12T00:20:50;21.40;99.90
9564;DHT22;4820;50.870;4.702;2023-09-12T00:23:16;21.40;99.90
9564;DHT22;4820;50.870;4.702;2023-09-12T00:25:42;21.30;99.90
9564;DHT22;4820;50.870;4.702;2023-09-12T00:28:07;21.30;99.90
9564;DHT22;4820;50.870;4.702;2023-09-12T00:30:34;21.30;99.90
9564;DHT22;4820;50.870;4.702;2023-09-12T00:33:00;21.30;99.90
9564;DHT22;4820;50.870;4.702;2023-09-12T00:35:25;21.20;99.90
9564;DHT22;4820;50.870;4.702;2023-09-12T00:37:51;21.20;99.90
9564;DHT22;4820;50.870;4.702;2023-09-12T00:40:17;21.20;99.90
9564;DHT22;4820;50.870;4.702;2023-09-12T00:42:42;21.20;99.90
9564;DHT22;4820;50.870;4.702;2023-09-12T00:45:08;21.20;99.90
9564;DHT22;4820;50.870;4.702;2023-09-12T00:47:35;21.10;99.90
9564;DHT22;4820;50.870;4.702;2023-09-12T00:50:02;21.10;99.90
9564;DHT22;4820;50.870;4.702;2023-09-12T00:52:31;21.10;99.90
9564;DHT22;4820;50.870;4.702;2023-09-12T00:54:58;21.10;99.90
9564;DHT22;4820;50.870;4.702;2023-09-12T00:57:25;21.00;99.90
9564;DHT22;4820;50.870;4.702;2023-09-12T00:59:51;21.00;99.90
9564;DHT22;4820;50.870;4.702;2023-09-12T01:02:19;21.00;99.90
9564;DHT22;4820;50.870;4.702;2023-09-12T01:04:45;21.00;99.90
9564;DHT22;4820;50.870;4.702;2023-09-12T01:07:11;20.90;99.90
9564;DHT22;4820;50.870;4.702;2023-09-12T01:09:37;20.90;99.90
9564;DHT22;4820;50.870;4.702;2023-09-12T01:12:03;20.90;99.90
9564;DHT22;4820;50.870;4.702;2023-09-12T01:14:29;20.90;99.90
9564;DHT22;4820;50.870;4.702;2023-09-12T01:16:56;20.90;99.90
9564;DHT22;4820;50.870;4.702;2023-09-12T01:19:22;20.90;99.90
9564;DHT22;4820;50.870;4.702;2023-09-12T01:22:27;20.90;99.90
9564;DHT22;4820;50.870;4.702;2023-09-12T01:27:58;20.80;99.90
9564;DHT22;4820;50.870;4.702;2023-09-12T01:30:25;20.80;99.90
9564;DHT22;4820;50.870;4.702;2023-09-12T01:32:54;20.80;99.90
9564;DHT22;4820;50.870;4.702;2023-09-12T01:35:19;20.80;99.90
9564;DHT22;4820;50.870;4.702;2023-09-12T01:37:45;20.80;99.90
9564;DHT22;4820;50.870;4.702;2023-09-12T01:40:11;20.70;99.90
9564;DHT22;4820;50.870;4.702;2023-09-12T01:42:40;20.70;99.90
9564;DHT22;4820;50.870;4.702;2023-09-12T01:45:09;20.70;99.90
9564;DHT22;4820;50.870;4.702;2023-09-12T01:47:37;20.60;99.90
9564;DHT22;4820;50.870;4.702;2023-09-12T01:50:05;20.60;99.90
9564;DHT22;4820;50.870;4.702;2023-09-12T01:52:34;20.60;99.90
9564;DHT22;4820;50.870;4.702;2023-09-12T01:55:00;20.60;99.90
9564;DHT22;4820;50.870;4.702;2023-09-12T01:57:27;20.60;99.90
9564;DHT22;4820;50.870;4.702;2023-09-12T01:59:53;20.60;99.90
9564;DHT22;4820;50.870;4.702;2023-09-12T02:02:20;20.60;99.90
9564;DHT22;4820;50.870;4.702;2023-09-12T02:05:12;20.60;99.90
9564;DHT22;4820;50.870;4.702;2023-09-12T02:07:41;20.60;99.90
9564;DHT22;4820;50.870;4.702;2023-09-12T02:10:07;20.60;99.90
9564;DHT22;4820;50.870;4.702;2023-09-12T02:12:33;20.50;99.90
9564;DHT22;4820;50.870;4.702;2023-09-12T02:14:59;20.50;99.90
9564;DHT22;4820;50.870;4.702;2023-09-12T02:17:24;20.50;99.90
9564;DHT22;4820;50.870;4.702;2023-09-12T02:19:50;20.40;99.90
9564;DHT22;4820;50.870;4.702;2023-09-12T02:22:18;20.30;99.90
9564;DHT22;4820;50.870;4.702;2023-09-12T02:24:44;20.30;99.90
9564;DHT22;4820;50.870;4.702;2023-09-12T02:27:10;20.40;99.90
9564;DHT22;4820;50.870;4.702;2023-09-12T02:29:40;20.40;99.90
9564;DHT22;4820;50.870;4.702;2023-09-12T02:32:06;20.40;99.90
9564;DHT22;4820;50.870;4.702;2023-09-12T02:34:32;20.50;99.90
9564;DHT22;4820;50.870;4.702;2023-09-12T02:37:00;20.50;99.90
9564;DHT22;4820;50.870;4.702;2023-09-12T02:39:26;20.50;99.90
9564;DHT22;4820;50.870;4.702;2023-09-12T02:41:52;20.60;99.90
9564;DHT22;4820;50.870;4.702;2023-09-12T02:44:17;20.60;99.90
9564;DHT22;4820;50.870;4.702;2023-09-12T02:46:43;20.60;99.90
9564;DHT22;4820;50.870;4.702;2023-09-12T02:49:09;20.60;99.90
9564;DHT22;4820;50.870;4.702;2023-09-12T02:51:38;20.60;99.90
9564;DHT22;4820;50.870;4.702;2023-09-12T02:54:04;20.60;99.90
9564;DHT22;4820;50.870;4.702;2023-09-12T02:56:30;20.60;99.90
9564;DHT22;4820;50.870;4.702;2023-09-12T02:58:56;20.60;99.90
9564;DHT22;4820;50.870;4.702;2023-09-12T03:01:22;20.50;99.90
9564;DHT22;4820;50.870;4.702;2023-09-12T03:03:48;20.50;99.90
9564;DHT22;4820;50.870;4.702;2023-09-12T03:06:15;20.50;99.90
9564;DHT22;4820;50.870;4.702;2023-09-12T03:08:41;20.50;99.90
9564;DHT22;4820;50.870;4.702;2023-09-12T03:11:07;20.50;99.90
9564;DHT22;4820;50.870;4.702;2023-09-12T03:13:34;20.50;99.90
9564;DHT22;4820;50.870;4.702;2023-09-12T03:16:00;20.60;99.90
9564;DHT22;4820;50.870;4.702;2023-09-12T03:18:26;20.50;99.90
9564;DHT22;4820;50.870;4.702;2023-09-12T03:20:54;20.50;99.90
9564;DHT22;4820;50.870;4.702;2023-09-12T03:23:20;20.50;99.90
9564;DHT22;4820;50.870;4.702;2023-09-12T03:25:45;20.50;99.90
9564;DHT22;4820;50.870;4.702;2023-09-12T03:28:11;20.40;99.90
9564;DHT22;4820;50.870;4.702;2023-09-12T03:30:38;20.40;99.90
9564;DHT22;4820;50.870;4.702;2023-09-12T03:33:04;20.40;99.90
9564;DHT22;4820;50.870;4.702;2023-09-12T03:35:32;20.40;99.90
9564;DHT22;4820;50.870;4.702;2023-09-12T03:37:57;20.40;99.90
9564;DHT22;4820;50.870;4.702;2023-09-12T03:40:23;20.40;99.90
9564;DHT22;4820;50.870;4.702;2023-09-12T03:42:50;20.40;99.90
9564;DHT22;4820;50.870;4.702;2023-09-12T03:45:15;20.30;99.90
9564;DHT22;4820;50.870;4.702;2023-09-12T03:47:41;20.40;99.90
9564;DHT22;4820;50.870;4.702;2023-09-12T03:50:08;20.30;99.90
9564;DHT22;4820;50.870;4.702;2023-09-12T03:52:36;20.30;99.90
9564;DHT22;4820;50.870;4.702;2023-09-12T03:55:02;20.30;99.90
9564;DHT22;4820;50.870;4.702;2023-09-12T03:57:28;20.30;99.90
9564;DHT22;4820;50.870;4.702;2023-09-12T03:59:54;20.30;99.90
9564;DHT22;4820;50.870;4.702;2023-09-12T04:02:19;20.30;99.90
9564;DHT22;4820;50.870;4.702;2023-09-12T04:04:45;20.40;99.90
9564;DHT22;4820;50.870;4.702;2023-09-12T04:07:11;20.40;99.90
9564;DHT22;4820;50.870;4.702;2023-09-12T04:09:36;20.40;99.90
9564;DHT22;4820;50.870;4.702;2023-09-12T04:12:02;20.40;99.90
9564;DHT22;4820;50.870;4.702;2023-09-12T04:14:28;20.40;99.90
9564;DHT22;4820;50.870;4.702;2023-09-12T04:16:53;20.40;99.90
9564;DHT22;4820;50.870;4.702;2023-09-12T04:19:19;20.40;99.90
9564;DHT22;4820;50.870;4.702;2023-09-12T04:21:45;20.40;99.90
9564;DHT22;4820;50.870;4.702;2023-09-12T04:24:10;20.30;99.90
9564;DHT22;4820;50.870;4.702;2023-09-12T04:26:36;20.40;99.90
9564;DHT22;4820;50.870;4.702;2023-09-12T04:29:02;20.40;99.90
9564;DHT22;4820;50.870;4.702;2023-09-12T04:31:28;20.50;99.90
9564;DHT22;4820;50.870;4.702;2023-09-12T04:33:54;20.50;99.90
9564;DHT22;4820;50.870;4.702;2023-09-12T04:36:20;20.40;99.90
9564;DHT22;4820;50.870;4.702;2023-09-12T04:38:46;20.30;99.90
9564;DHT22;4820;50.870;4.702;2023-09-12T04:41:13;20.40;99.90
9564;DHT22;4820;50.870;4.702;2023-09-12T04:43:44;20.40;99.90
9564;DHT22;4820;50.870;4.702;2023-09-12T04:46:12;20.50;99.90
9564;DHT22;4820;50.870;4.702;2023-09-12T04:48:38;20.40;99.90
9564;DHT22;4820;50.870;4.702;2023-09-12T04:51:04;20.40;99.90
9564;DHT22;4820;50.870;4.702;2023-09-12T04:53:30;20.30;99.90
9564;DHT22;4820;50.870;4.702;2023-09-12T04:56:00;20.20;99.90
9564;DHT22;4820;50.870;4.702;2023-09-12T04:58:26;20.20;99.90
9564;DHT22;4820;50.870;4.702;2023-09-12T05:00:53;20.20;99.90
9564;DHT22;4820;50.870;4.702;2023-09-12T05:03:19;20.20;99.90
9564;DHT22;4820;50.870;4.702;2023-09-12T05:05:49;20.30;99.90
9564;DHT22;4820;50.870;4.702;2023-09-12T05:08:15;20.30;99.90
9564;DHT22;4820;50.870;4.702;2023-09-12T05:10:43;20.40;99.90
9564;DHT22;4820;50.870;4.702;2023-09-12T05:13:09;20.40;99.90
9564;DHT22;4820;50.870;4.702;2023-09-12T05:15:35;20.40;99.90
9564;DHT22;4820;50.870;4.702;2023-09-12T05:18:02;20.50;99.90
9564;DHT22;4820;50.870;4.702;2023-09-12T05:20:28;20.50;99.90
9564;DHT22;4820;50.870;4.702;2023-09-12T05:22:53;20.50;99.90
9564;DHT22;4820;50.870;4.702;2023-09-12T05:25:19;20.50;99.90
9564;DHT22;4820;50.870;4.702;2023-09-12T05:27:45;20.50;99.90
9564;DHT22;4820;50.870;4.702;2023-09-12T05:30:11;20.50;99.90
9564;DHT22;4820;50.870;4.702;2023-09-12T05:32:37;20.50;99.90
9564;DHT22;4820;50.870;4.702;2023-09-12T05:35:03;20.40;99.90
9564;DHT22;4820;50.870;4.702;2023-09-12T05:37:29;20.40;99.90
9564;DHT22;4820;50.870;4.702;2023-09-12T05:39:55;20.40;99.90
9564;DHT22;4820;50.870;4.702;2023-09-12T05:42:21;20.40;99.90
9564;DHT22;4820;50.870;4.702;2023-09-12T05:44:48;20.40;99.90
9564;DHT22;4820;50.870;4.702;2023-09-12T05:47:15;20.30;99.90
9564;DHT22;4820;50.870;4.702;2023-09-12T05:49:44;20.30;99.90
9564;DHT22;4820;50.870;4.702;2023-09-12T05:52:10;20.30;99.90
9564;DHT22;4820;50.870;4.702;2023-09-12T05:54:36;20.30;99.90
9564;DHT22;4820;50.870;4.702;2023-09-12T05:57:02;20.30;99.90
9564;DHT22;4820;50.870;4.702;2023-09-12T05:59:28;20.20;99.90
9564;DHT22;4820;50.870;4.702;2023-09-12T06:01:54;20.20;99.90
9564;DHT22;4820;50.870;4.702;2023-09-12T06:04:21;20.20;99.90
9564;DHT22;4820;50.870;4.702;2023-09-12T06:06:47;20.10;99.90
9564;DHT22;4820;50.870;4.702;2023-09-12T06:09:13;20.10;99.90
9564;DHT22;4820;50.870;4.702;2023-09-12T06:11:38;20.10;99.90
9564;DHT22;4820;50.870;4.702;2023-09-12T06:14:04;20.10;99.90
9564;DHT22;4820;50.870;4.702;2023-09-12T06:16:30;20.10;99.90
9564;DHT22;4820;50.870;4.702;2023-09-12T06:18:56;20.10;99.90
9564;DHT22;4820;50.870;4.702;2023-09-12T06:21:21;20.10;99.90
9564;DHT22;4820;50.870;4.702;2023-09-12T06:23:48;20.10;99.90
9564;DHT22;4820;50.870;4.702;2023-09-12T06:26:14;20.20;99.90
9564;DHT22;4820;50.870;4.702;2023-09-12T06:28:40;20.20;99.90
9564;DHT22;4820;50.870;4.702;2023-09-12T06:31:08;20.20;99.90
9564;DHT22;4820;50.870;4.702;2023-09-12T06:33:35;20.20;99.90
9564;DHT22;4820;50.870;4.702;2023-09-12T06:36:01;20.20;99.90
9564;DHT22;4820;50.870;4.702;2023-09-12T06:38:28;20.20;99.90
9564;DHT22;4820;50.870;4.702;2023-09-12T06:40:53;20.20;99.90
9564;DHT22;4820;50.870;4.702;2023-09-12T06:43:20;20.30;99.90
9564;DHT22;4820;50.870;4.702;2023-09-12T06:45:45;20.40;99.90
9564;DHT22;4820;50.870;4.702;2023-09-12T06:48:11;20.50;99.90
9564;DHT22;4820;50.870;4.702;2023-09-12T06:50:37;20.60;99.90
9564;DHT22;4820;50.870;4.702;2023-09-12T06:53:05;20.60;99.90
9564;DHT22;4820;50.870;4.702;2023-09-12T06:55:32;20.60;99.90
9564;DHT22;4820;50.870;4.702;2023-09-12T06:57:59;20.70;99.90
9564;DHT22;4820;50.870;4.702;2023-09-12T07:00:25;20.70;99.90
9564;DHT22;4820;50.870;4.702;2023-09-12T07:02:52;20.80;99.90
9564;DHT22;4820;50.870;4.702;2023-09-12T07:05:17;20.80;99.90
9564;DHT22;4820;50.870;4.702;2023-09-12T07:07:43;20.80;99.90
9564;DHT22;4820;50.870;4.702;2023-09-12T07:10:09;20.80;99.90
9564;DHT22;4820;50.870;4.702;2023-09-12T07:12:34;20.90;99.90
9564;DHT22;4820;50.870;4.702;2023-09-12T07:15:00;20.90;99.90
9564;DHT22;4820;50.870;4.702;2023-09-12T07:17:28;21.00;99.90
9564;DHT22;4820;50.870;4.702;2023-09-12T07:19:53;21.10;99.90
9564;DHT22;4820;50.870;4.702;2023-09-12T07:22:20;21.20;99.90
9564;DHT22;4820;50.870;4.702;2023-09-12T07:24:45;21.30;99.90
9564;DHT22;4820;50.870;4.702;2023-09-12T07:27:11;21.30;99.90
9564;DHT22;4820;50.870;4.702;2023-09-12T07:29:38;21.40;99.90
9564;DHT22;4820;50.870;4.702;2023-09-12T07:32:04;21.50;99.90
9564;DHT22;4820;50.870;4.702;2023-09-12T07:34:29;21.60;99.90
9564;DHT22;4820;50.870;4.702;2023-09-12T07:36:55;21.70;99.90
9564;DHT22;4820;50.870;4.702;2023-09-12T07:39:21;21.90;99.90
9564;DHT22;4820;50.870;4.702;2023-09-12T07:41:47;22.10;99.90
9564;DHT22;4820;50.870;4.702;2023-09-12T07:44:12;22.20;99.90
9564;DHT22;4820;50.870;4.702;2023-09-12T07:46:41;22.20;99.90
9564;DHT22;4820;50.870;4.702;2023-09-12T07:49:06;22.20;99.90
9564;DHT22;4820;50.870;4.702;2023-09-12T07:51:35;22.20;99.90
9564;DHT22;4820;50.870;4.702;2023-09-12T07:54:01;22.30;99.90
9564;DHT22;4820;50.870;4.702;2023-09-12T07:56:27;22.40;99.90
9564;DHT22;4820;50.870;4.702;2023-09-12T07:58:52;22.60;99.90
9564;DHT22;4820;50.870;4.702;2023-09-12T08:01:18;22.70;99.90
9564;DHT22;4820;50.870;4.702;2023-09-12T08:03:44;23.00;99.90
9564;DHT22;4820;50.870;4.702;2023-09-12T08:06:10;23.10;99.90
9564;DHT22;4820;50.870;4.702;2023-09-12T08:08:36;23.10;99.90
9564;DHT22;4820;50.870;4.702;2023-09-12T08:11:02;23.10;99.90
9564;DHT22;4820;50.870;4.702;2023-09-12T08:13:29;23.20;99.90
9564;DHT22;4820;50.870;4.702;2023-09-12T08:15:56;23.30;99.90
9564;DHT22;4820;50.870;4.702;2023-09-12T08:18:26;23.30;99.90
9564;DHT22;4820;50.870;4.702;2023-09-12T08:20:53;23.20;99.90
9564;DHT22;4820;50.870;4.702;2023-09-12T08:23:18;23.20;99.90
9564;DHT22;4820;50.870;4.702;2023-09-12T08:25:44;23.20;99.90
9564;DHT22;4820;50.870;4.702;2023-09-12T08:28:10;23.00;99.90
9564;DHT22;4820;50.870;4.702;2023-09-12T08:30:36;23.00;99.90
9564;DHT22;4820;50.870;4.702;2023-09-12T08:33:02;22.90;99.90
9564;DHT22;4820;50.870;4.702;2023-09-12T08:35:29;22.80;99.90
9564;DHT22;4820;50.870;4.702;2023-09-12T08:37:55;22.90;99.90
9564;DHT22;4820;50.870;4.702;2023-09-12T08:40:21;22.90;99.90
9564;DHT22;4820;50.870;4.702;2023-09-12T08:42:47;22.90;99.90
9564;DHT22;4820;50.870;4.702;2023-09-12T08:45:15;22.90;99.90
9564;DHT22;4820;50.870;4.702;2023-09-12T08:47:44;23.00;99.90
9564;DHT22;4820;50.870;4.702;2023-09-12T08:50:12;23.00;99.90
9564;DHT22;4820;50.870;4.702;2023-09-12T08:52:42;23.10;99.90
9564;DHT22;4820;50.870;4.702;2023-09-12T08:55:09;23.20;99.90
9564;DHT22;4820;50.870;4.702;2023-09-12T08:57:38;23.40;99.90
9564;DHT22;4820;50.870;4.702;2023-09-12T09:00:04;23.50;99.90
9564;DHT22;4820;50.870;4.702;2023-09-12T09:02:33;23.70;99.90
9564;DHT22;4820;50.870;4.702;2023-09-12T09:05:01;23.80;99.90
9564;DHT22;4820;50.870;4.702;2023-09-12T09:07:29;23.90;99.90
9564;DHT22;4820;50.870;4.702;2023-09-12T09:09:56;23.80;99.90
9564;DHT22;4820;50.870;4.702;2023-09-12T09:12:21;23.70;99.90
9564;DHT22;4820;50.870;4.702;2023-09-12T09:14:47;23.70;99.90
9564;DHT22;4820;50.870;4.702;2023-09-12T09:17:13;23.80;99.90
9564;DHT22;4820;50.870;4.702;2023-09-12T09:19:42;23.90;99.90
9564;DHT22;4820;50.870;4.702;2023-09-12T09:22:08;24.00;99.90
9564;DHT22;4820;50.870;4.702;2023-09-12T09:24:34;24.20;99.90
9564;DHT22;4820;50.870;4.702;2023-09-12T09:27:00;24.30;99.90
9564;DHT22;4820;50.870;4.702;2023-09-12T09:29:27;24.40;99.90
9564;DHT22;4820;50.870;4.702;2023-09-12T09:32:00;24.50;99.90
9564;DHT22;4820;50.870;4.702;2023-09-12T09:34:26;24.60;99.90
9564;DHT22;4820;50.870;4.702;2023-09-12T09:36:57;24.70;99.90
9564;DHT22;4820;50.870;4.702;2023-09-12T09:39:26;24.70;99.90
9564;DHT22;4820;50.870;4.702;2023-09-12T09:41:54;24.80;99.90
9564;DHT22;4820;50.870;4.702;2023-09-12T09:44:25;24.80;99.90
9564;DHT22;4820;50.870;4.702;2023-09-12T09:46:55;24.60;99.90
9564;DHT22;4820;50.870;4.702;2023-09-12T09:49:22;24.50;99.90
9564;DHT22;4820;50.870;4.702;2023-09-12T09:51:48;24.50;99.90
9564;DHT22;4820;50.870;4.702;2023-09-12T09:54:14;24.50;99.90
9564;DHT22;4820;50.870;4.702;2023-09-12T09:56:49;24.70;99.90
9564;DHT22;4820;50.870;4.702;2023-09-12T09:59:17;24.80;99.90
9564;DHT22;4820;50.870;4.702;2023-09-12T10:01:44;24.90;99.90
9564;DHT22;4820;50.870;4.702;2023-09-12T10:04:11;24.80;99.90
9564;DHT22;4820;50.870;4.702;2023-09-12T10:06:38;24.80;99.90
9564;DHT22;4820;50.870;4.702;2023-09-12T10:09:12;24.80;99.90
9564;DHT22;4820;50.870;4.702;2023-09-12T10:11:39;24.80;99.90
9564;DHT22;4820;50.870;4.702;2023-09-12T10:14:06;24.90;99.90
9564;DHT22;4820;50.870;4.702;2023-09-12T10:16:33;25.10;99.90
9564;DHT22;4820;50.870;4.702;2023-09-12T10:19:18;25.10;99.90
9564;DHT22;4820;50.870;4.702;2023-09-12T10:24:49;25.20;99.90
9564;DHT22;4820;50.870;4.702;2023-09-12T10:27:18;25.30;99.90
9564;DHT22;4820;50.870;4.702;2023-09-12T10:29:44;25.30;99.90
9564;DHT22;4820;50.870;4.702;2023-09-12T10:32:14;25.50;99.90
9564;DHT22;4820;50.870;4.702;2023-09-12T10:34:40;25.60;99.90
9564;DHT22;4820;50.870;4.702;2023-09-12T10:37:15;25.70;99.90
9564;DHT22;4820;50.870;4.702;2023-09-12T10:39:42;25.70;99.90
9564;DHT22;4820;50.870;4.702;2023-09-12T10:42:08;25.80;99.90
9564;DHT22;4820;50.870;4.702;2023-09-12T10:44:35;26.00;99.90
9564;DHT22;4820;50.870;4.702;2023-09-12T10:47:01;26.20;99.90
9564;DHT22;4820;50.870;4.702;2023-09-12T10:49:30;26.20;99.90
9564;DHT22;4820;50.870;4.702;2023-09-12T10:51:56;26.20;99.90
9564;DHT22;4820;50.870;4.702;2023-09-12T10:54:36;26.30;99.90
9564;DHT22;4820;50.870;4.702;2023-09-12T10:57:07;26.30;99.90
9564;DHT22;4820;50.870;4.702;2023-09-12T10:59:34;26.20;99.90
9564;DHT22;4820;50.870;4.702;2023-09-12T11:02:36;26.10;99.90
9564;DHT22;4820;50.870;4.702;2023-09-12T11:05:06;26.10;99.90
9564;DHT22;4820;50.870;4.702;2023-09-12T11:12:54;26.20;99.90
9564;DHT22;4820;50.870;4.702;2023-09-12T11:15:21;26.30;99.90
9564;DHT22;4820;50.870;4.702;2023-09-12T11:18:04;26.20;99.90
9564;DHT22;4820;50.870;4.702;2023-09-12T11:20:53;26.30;99.90
9564;DHT22;4820;50.870;4.702;2023-09-12T11:23:24;26.50;99.90
9564;DHT22;4820;50.870;4.702;2023-09-12T11:26:11;26.40;99.90
9564;DHT22;4820;50.870;4.702;2023-09-12T11:28:39;26.30;99.90
9564;DHT22;4820;50.870;4.702;2023-09-12T11:31:05;26.30;99.90
9564;DHT22;4820;50.870;4.702;2023-09-12T11:33:32;26.30;99.90
9564;DHT22;4820;50.870;4.702;2023-09-12T11:35:58;26.40;99.90
9564;DHT22;4820;50.870;4.702;2023-09-12T11:38:29;26.50;99.90
9564;DHT22;4820;50.870;4.702;2023-09-12T11:40:58;26.70;99.90
9564;DHT22;4820;50.870;4.702;2023-09-12T11:43:25;26.80;99.90
9564;DHT22;4820;50.870;4.702;2023-09-12T11:45:53;26.90;99.90
9564;DHT22;4820;50.870;4.702;2023-09-12T11:48:20;27.10;99.90
9564;DHT22;4820;50.870;4.702;2023-09-12T11:50:55;27.10;99.90
9564;DHT22;4820;50.870;4.702;2023-09-12T11:53:23;27.30;99.90
9564;DHT22;4820;50.870;4.702;2023-09-12T11:55:53;27.60;99.90
9564;DHT22;4820;50.870;4.702;2023-09-12T11:58:20;28.00;99.90
9564;DHT22;4820;50.870;4.702;2023-09-12T12:00:48;28.30;99.90
9564;DHT22;4820;50.870;4.702;2023-09-12T12:03:22;28.50;99.90
9564;DHT22;4820;50.870;4.702;2023-09-12T12:05:48;28.50;99.90
9564;DHT22;4820;50.870;4.702;2023-09-12T12:08:15;28.10;99.90
9564;DHT22;4820;50.870;4.702;2023-09-12T12:10:41;28.00;99.90
9564;DHT22;4820;50.870;4.702;2023-09-12T12:13:12;28.00;99.90
9564;DHT22;4820;50.870;4.702;2023-09-12T12:15:37;28.10;99.90
9564;DHT22;4820;50.870;4.702;2023-09-12T12:18:04;28.20;99.90
9564;DHT22;4820;50.870;4.702;2023-09-12T12:20:29;28.30;99.90
9564;DHT22;4820;50.870;4.702;2023-09-12T12:22:56;28.40;99.90
9564;DHT22;4820;50.870;4.702;2023-09-12T12:25:22;28.50;99.90
9564;DHT22;4820;50.870;4.702;2023-09-12T12:27:47;28.50;99.90
9564;DHT22;4820;50.870;4.702;2023-09-12T12:30:14;28.40;99.90
9564;DHT22;4820;50.870;4.702;2023-09-12T12:32:41;28.30;99.90
9564;DHT22;4820;50.870;4.702;2023-09-12T12:35:08;28.20;99.90
9564;DHT22;4820;50.870;4.702;2023-09-12T12:37:33;28.10;99.90
9564;DHT22;4820;50.870;4.702;2023-09-12T12:40:02;27.90;99.90
9564;DHT22;4820;50.870;4.702;2023-09-12T12:42:38;27.90;99.90
9564;DHT22;4820;50.870;4.702;2023-09-12T12:45:14;27.90;99.90
9564;DHT22;4820;50.870;4.702;2023-09-12T12:47:40;27.80;99.90
9564;DHT22;4820;50.870;4.702;2023-09-12T12:50:14;27.70;99.90
9564;DHT22;4820;50.870;4.702;2023-09-12T12:52:41;27.70;99.90
9564;DHT22;4820;50.870;4.702;2023-09-12T12:55:10;27.60;99.90
9564;DHT22;4820;50.870;4.702;2023-09-12T12:57:37;27.50;99.90
9564;DHT22;4820;50.870;4.702;2023-09-12T13:00:14;27.30;99.90
9564;DHT22;4820;50.870;4.702;2023-09-12T13:02:42;27.30;99.90
9564;DHT22;4820;50.870;4.702;2023-09-12T13:07:52;27.40;99.90
9564;DHT22;4820;50.870;4.702;2023-09-12T13:10:20;27.50;99.90
9564;DHT22;4820;50.870;4.702;2023-09-12T13:12:47;27.50;99.90
9564;DHT22;4820;50.870;4.702;2023-09-12T13:15:15;27.60;99.90
9564;DHT22;4820;50.870;4.702;2023-09-12T13:17:41;27.70;99.90
9564;DHT22;4820;50.870;4.702;2023-09-12T13:20:08;27.60;99.90
9564;DHT22;4820;50.870;4.702;2023-09-12T13:22:35;27.50;99.90
9564;DHT22;4820;50.870;4.702;2023-09-12T13:25:01;27.40;99.90
9564;DHT22;4820;50.870;4.702;2023-09-12T13:27:27;27.30;99.90
9564;DHT22;4820;50.870;4.702;2023-09-12T13:29:53;27.10;99.90
9564;DHT22;4820;50.870;4.702;2023-09-12T13:32:18;26.90;99.90
9564;DHT22;4820;50.870;4.702;2023-09-12T13:34:45;26.90;99.90
9564;DHT22;4820;50.870;4.702;2023-09-12T13:37:11;26.90;99.90
9564;DHT22;4820;50.870;4.702;2023-09-12T13:39:37;26.90;99.90
9564;DHT22;4820;50.870;4.702;2023-09-12T13:42:06;26.90;99.90
9564;DHT22;4820;50.870;4.702;2023-09-12T13:44:33;26.90;99.90
9564;DHT22;4820;50.870;4.702;2023-09-12T13:46:59;26.90;99.90
9564;DHT22;4820;50.870;4.702;2023-09-12T13:49:25;26.80;99.90
9564;DHT22;4820;50.870;4.702;2023-09-12T13:51:50;26.80;99.90
9564;DHT22;4820;50.870;4.702;2023-09-12T13:54:16;26.80;99.90
9564;DHT22;4820;50.870;4.702;2023-09-12T13:56:43;26.80;99.90
9564;DHT22;4820;50.870;4.702;2023-09-12T13:59:09;26.80;99.90
9564;DHT22;4820;50.870;4.702;2023-09-12T14:01:34;26.90;99.90
9564;DHT22;4820;50.870;4.702;2023-09-12T14:04:02;26.90;99.90
9564;DHT22;4820;50.870;4.702;2023-09-12T14:06:32;26.90;99.90
9564;DHT22;4820;50.870;4.702;2023-09-12T14:08:58;26.90;99.90
9564;DHT22;4820;50.870;4.702;2023-09-12T14:11:24;26.90;99.90
9564;DHT22;4820;50.870;4.702;2023-09-12T14:13:49;27.00;99.90
9564;DHT22;4820;50.870;4.702;2023-09-12T14:16:15;26.90;99.90
9564;DHT22;4820;50.870;4.702;2023-09-12T14:18:41;26.80;99.90
9564;DHT22;4820;50.870;4.702;2023-09-12T14:21:06;26.60;99.90
9564;DHT22;4820;50.870;4.702;2023-09-12T14:23:32;26.50;99.90
9564;DHT22;4820;50.870;4.702;2023-09-12T14:25:58;26.40;99.90
9564;DHT22;4820;50.870;4.702;2023-09-12T14:28:24;26.30;99.90
9564;DHT22;4820;50.870;4.702;2023-09-12T14:30:50;26.30;99.90
9564;DHT22;4820;50.870;4.702;2023-09-12T14:33:16;26.30;99.90
9564;DHT22;4820;50.870;4.702;2023-09-12T14:35:44;26.30;99.90
9564;DHT22;4820;50.870;4.702;2023-09-12T14:38:12;26.20;99.90
9564;DHT22;4820;50.870;4.702;2023-09-12T14:40:38;26.20;99.90
9564;DHT22;4820;50.870;4.702;2023-09-12T14:43:05;26.10;99.90
9564;DHT22;4820;50.870;4.702;2023-09-12T14:45:32;26.00;99.90
9564;DHT22;4820;50.870;4.702;2023-09-12T14:47:58;25.90;99.90
9564;DHT22;4820;50.870;4.702;2023-09-12T14:50:24;25.80;99.90
9564;DHT22;4820;50.870;4.702;2023-09-12T14:52:51;25.70;99.90
9564;DHT22;4820;50.870;4.702;2023-09-12T14:55:17;25.60;99.90
9564;DHT22;4820;50.870;4.702;2023-09-12T14:57:42;25.50;99.90
9564;DHT22;4820;50.870;4.702;2023-09-12T15:00:10;25.50;99.90
9564;DHT22;4820;50.870;4.702;2023-09-12T15:02:37;25.40;99.90
9564;DHT22;4820;50.870;4.702;2023-09-12T15:05:03;25.30;99.90
9564;DHT22;4820;50.870;4.702;2023-09-12T15:07:29;25.30;99.90
9564;DHT22;4820;50.870;4.702;2023-09-12T15:09:55;25.20;99.90
9564;DHT22;4820;50.870;4.702;2023-09-12T15:12:21;25.20;99.90
9564;DHT22;4820;50.870;4.702;2023-09-12T15:14:46;25.10;99.90
9564;DHT22;4820;50.870;4.702;2023-09-12T15:17:12;25.10;99.90
9564;DHT22;4820;50.870;4.702;2023-09-12T15:19:38;25.10;99.90
9564;DHT22;4820;50.870;4.702;2023-09-12T15:22:04;25.00;99.90
9564;DHT22;4820;50.870;4.702;2023-09-12T15:24:30;25.00;99.90
9564;DHT22;4820;50.870;4.702;2023-09-12T15:26:57;25.00;99.90
9564;DHT22;4820;50.870;4.702;2023-09-12T15:29:23;24.90;99.90
9564;DHT22;4820;50.870;4.702;2023-09-12T15:31:48;24.90;99.90
9564;DHT22;4820;50.870;4.702;2023-09-12T15:34:15;24.80;99.90
9564;DHT22;4820;50.870;4.702;2023-09-12T15:36:44;24.80;99.90
9564;DHT22;4820;50.870;4.702;2023-09-12T15:39:10;24.80;99.90
9564;DHT22;4820;50.870;4.702;2023-09-12T15:41:37;24.70;99.90
9564;DHT22;4820;50.870;4.702;2023-09-12T15:44:03;24.70;99.90
9564;DHT22;4820;50.870;4.702;2023-09-12T15:46:29;24.60;99.90
9564;DHT22;4820;50.870;4.702;2023-09-12T15:48:55;24.60;99.90
9564;DHT22;4820;50.870;4.702;2023-09-12T15:51:22;24.50;99.90
9564;DHT22;4820;50.870;4.702;2023-09-12T15:53:48;24.50;99.90
9564;DHT22;4820;50.870;4.702;2023-09-12T15:56:14;24.50;99.90
9564;DHT22;4820;50.870;4.702;2023-09-12T15:58:39;24.40;99.90
9564;DHT22;4820;50.870;4.702;2023-09-12T16:01:05;24.40;99.90
9564;DHT22;4820;50.870;4.702;2023-09-12T16:03:34;24.40;99.90
9564;DHT22;4820;50.870;4.702;2023-09-12T16:06:01;24.30;99.90
9564;DHT22;4820;50.870;4.702;2023-09-12T16:08:26;24.30;99.90
9564;DHT22;4820;50.870;4.702;2023-09-12T16:10:52;24.30;99.90
9564;DHT22;4820;50.870;4.702;2023-09-12T16:13:18;24.20;99.90
9564;DHT22;4820;50.870;4.702;2023-09-12T16:15:44;24.20;99.90